Time;durP1;ratioP1;P1;durP2;ratioP2;P2;SDS_P1;SDS_P2;PMS_P1;PMS_P2;Temp;Humidity;BMP_temperature;BMP_pressure;BME280_temperature;BME280_humidity;BME280_pressure;Samples;Min_cycle;Max_cycle;Signal;HPM_P1;HPM_P2
2023/11/21 00:00:18;;;;;;;25.85;11.23;;;5.60;99.90;;;;;;5054899;28;20041;-64
2023/11/21 00:02:45;;;;;;;25.90;10.48;;;5.60;99.90;;;;;;5035822;28;20024;-64
2023/11/21 00:05:13;;;;;;;26.70;11.02;;;5.60;99.90;;;;;;5059880;28;20021;-65
2023/11/21 00:07:40;;;;;;;28.52;11.52;;;5.70;99.90;;;;;;5055903;28;20113;-64
2023/11/21 00:10:06;;;;;;;29.42;11.73;;;5.60;99.90;;;;;;5044009;28;20036;-65
2023/11/21 00:12:33;;;;;;;26.10;11.65;;;5.60;99.90;;;;;;5060387;28;20404;-64
2023/11/21 00:14:59;;;;;;;26.27;12.25;;;5.50;99.90;;;;;;5059863;28;20053;-64
2023/11/21 00:17:25;;;;;;;28.48;12.38;;;5.50;99.90;;;;;;5062469;28;20123;-64
2023/11/21 00:19:53;;;;;;;28.25;12.70;;;5.50;99.90;;;;;;5039197;28;20021;-64
2023/11/21 00:22:19;;;;;;;32.13;12.30;;;5.50;99.90;;;;;;5061801;28;20032;-64
2023/11/21 00:24:45;;;;;;;23.60;10.77;;;5.50;99.90;;;;;;5061749;28;20060;-64
2023/11/21 00:27:11;;;;;;;26.75;11.30;;;5.50;99.90;;;;;;5058863;28;20029;-64
2023/11/21 00:29:38;;;;;;;25.67;12.15;;;5.50;99.90;;;;;;5042575;28;20028;-64
2023/11/21 00:32:05;;;;;;;26.30;11.63;;;5.50;99.90;;;;;;5059415;28;20029;-64
2023/11/21 00:34:31;;;;;;;33.78;11.15;;;5.60;99.90;;;;;;5061395;28;20376;-64
2023/11/21 00:36:57;;;;;;;26.23;10.60;;;5.60;99.90;;;;;;5060831;28;20021;-64
2023/11/21 00:39:22;;;;;;;30.17;10.20;;;5.70;99.90;;;;;;5059732;28;20025;-64
2023/11/21 00:41:48;;;;;;;27.08;10.20;;;5.70;99.90;;;;;;5052429;28;20450;-64
2023/11/21 00:44:14;;;;;;;25.05;10.57;;;5.80;99.90;;;;;;5062937;28;20043;-64
2023/11/21 00:46:39;;;;;;;25.35;9.90;;;5.80;99.90;;;;;;5058798;28;20091;-64
2023/11/21 00:49:05;;;;;;;24.08;9.32;;;5.90;99.90;;;;;;5061559;28;20082;-64
2023/11/21 00:51:31;;;;;;;25.73;9.05;;;5.90;99.90;;;;;;5055504;28;20564;-64
2023/11/21 00:53:56;;;;;;;20.02;9.27;;;5.90;99.90;;;;;;5059225;28;20564;-64
2023/11/21 00:56:23;;;;;;;19.50;8.60;;;5.90;99.90;;;;;;5054923;28;20029;-64
2023/11/21 00:58:52;;;;;;;26.90;9.50;;;5.90;99.90;;;;;;5040336;28;20377;-64
2023/11/21 01:01:18;;;;;;;20.33;8.73;;;5.90;99.90;;;;;;5056894;28;20028;-67
2023/11/21 01:03:46;;;;;;;24.10;9.00;;;5.90;99.90;;;;;;5057996;28;20767;-67
2023/11/21 01:06:11;;;;;;;20.98;8.50;;;5.90;99.90;;;;;;5058804;28;20019;-68
2023/11/21 01:08:37;;;;;;;23.42;9.90;;;5.90;99.90;;;;;;5055696;28;20033;-68
2023/11/21 01:11:04;;;;;;;22.70;9.60;;;5.90;99.90;;;;;;5049210;28;20028;-68
2023/11/21 01:13:30;;;;;;;23.85;10.23;;;5.90;99.90;;;;;;5055594;28;20091;-68
2023/11/21 01:15:56;;;;;;;24.95;10.27;;;5.90;99.90;;;;;;5059782;28;20024;-69
2023/11/21 01:18:22;;;;;;;26.38;9.23;;;5.90;99.90;;;;;;5056594;28;20426;-68
2023/11/21 01:20:47;;;;;;;22.50;9.57;;;5.90;99.90;;;;;;5059494;28;20021;-68
2023/11/21 01:23:16;;;;;;;20.75;9.82;;;5.90;99.90;;;;;;5056440;28;20048;-68
2023/11/21 01:25:41;;;;;;;28.75;11.00;;;5.90;99.90;;;;;;5034920;28;20033;-68
2023/11/21 01:28:07;;;;;;;29.50;11.10;;;5.90;99.90;;;;;;5037474;28;20158;-68
2023/11/21 01:30:32;;;;;;;28.02;10.35;;;5.90;99.90;;;;;;5038103;28;20548;-68
2023/11/21 01:32:58;;;;;;;25.70;10.75;;;5.80;99.90;;;;;;5038645;28;20056;-68
2023/11/21 01:35:24;;;;;;;26.98;10.88;;;5.80;99.90;;;;;;5058606;28;20035;-68
2023/11/21 01:37:50;;;;;;;28.48;11.32;;;5.90;99.90;;;;;;5055698;28;20029;-68
2023/11/21 01:40:16;;;;;;;25.50;9.90;;;5.80;99.90;;;;;;5049857;28;20104;-68
2023/11/21 01:42:46;;;;;;;26.77;11.32;;;5.80;99.90;;;;;;5057237;28;20050;-68
2023/11/21 01:45:12;;;;;;;25.92;10.27;;;5.80;99.90;;;;;;5058218;28;20028;-68
2023/11/21 01:47:41;;;;;;;27.10;9.95;;;5.80;99.90;;;;;;5049142;28;20358;-68
2023/11/21 01:50:08;;;;;;;26.73;10.30;;;5.80;99.90;;;;;;5051266;28;20380;-68
2023/11/21 01:52:37;;;;;;;25.02;9.55;;;5.80;99.90;;;;;;5057179;28;20028;-68
2023/11/21 01:55:06;;;;;;;25.73;10.77;;;5.80;99.90;;;;;;5060491;28;20024;-68
2023/11/21 01:57:32;;;;;;;29.45;11.00;;;5.80;99.90;;;;;;5035979;28;20338;-68
2023/11/21 02:00:15;;;;;;;30.48;11.27;;;5.80;99.90;;;;;;5041728;28;20519;-68
2023/11/21 02:02:46;;;;;;;27.00;10.57;;;5.90;99.90;;;;;;5060518;28;20574;-68
2023/11/21 02:05:14;;;;;;;26.42;11.60;;;5.90;99.90;;;;;;5055994;28;20415;-68
2023/11/21 02:07:42;;;;;;;25.17;11.38;;;6.00;99.90;;;;;;5059007;28;20027;-68
2023/11/21 02:10:08;;;;;;;30.98;11.05;;;6.00;99.90;;;;;;5060655;28;20028;-68
2023/11/21 02:12:35;;;;;;;37.75;13.00;;;6.00;99.90;;;;;;5057484;28;20041;-68
2023/11/21 02:15:04;;;;;;;32.15;11.65;;;5.90;99.90;;;;;;5043663;28;20025;-68
2023/11/21 02:17:32;;;;;;;29.88;11.48;;;5.90;99.90;;;;;;5059723;28;20024;-68
2023/11/21 02:19:58;;;;;;;24.90;9.75;;;5.90;99.90;;;;;;5060485;28;20024;-68
2023/11/21 02:22:28;;;;;;;29.50;12.45;;;5.90;99.90;;;;;;5057760;28;20028;-68
2023/11/21 02:24:54;;;;;;;;;;;5.90;99.90;;;;;;5035609;28;20025;-68
2023/11/21 02:27:21;;;;;;;24.95;11.90;;;5.90;99.90;;;;;;5058166;28;19935;-68
2023/11/21 02:29:47;;;;;;;31.75;12.40;;;5.80;99.90;;;;;;5057610;28;20028;-68
2023/11/21 02:32:16;;;;;;;27.38;11.52;;;5.80;99.90;;;;;;5057475;28;20025;-68
2023/11/21 02:34:43;;;;;;;28.30;12.50;;;5.80;99.90;;;;;;5042608;28;20414;-68
2023/11/21 02:37:09;;;;;;;34.80;13.18;;;5.80;99.90;;;;;;5058241;28;20014;-68
2023/11/21 02:39:35;;;;;;;30.73;13.05;;;5.70;99.90;;;;;;5059168;28;20055;-68
2023/11/21 02:42:01;;;;;;;32.95;12.57;;;5.70;99.90;;;;;;5061281;28;20044;-68
2023/11/21 02:44:26;;;;;;;34.47;13.13;;;5.70;99.90;;;;;;5050824;28;20020;-68
2023/11/21 02:46:52;;;;;;;36.58;13.70;;;5.70;99.90;;;;;;5061555;28;20391;-68
2023/11/21 02:49:17;;;;;;;32.33;13.70;;;5.60;99.90;;;;;;5040052;28;20033;-68
2023/11/21 02:51:43;;;;;;;43.25;16.00;;;5.60;99.90;;;;;;5059718;28;20653;-68
2023/11/21 02:54:09;;;;;;;37.78;14.52;;;5.60;99.90;;;;;;5059739;28;20028;-68
2023/11/21 02:56:35;;;;;;;44.40;15.80;;;5.70;99.90;;;;;;5057105;28;20112;-68
2023/11/21 02:59:00;;;;;;;36.22;14.70;;;5.70;99.90;;;;;;5056588;28;20068;-68
2023/11/21 03:01:27;;;;;;;38.83;15.18;;;5.70;99.90;;;;;;5060538;28;20078;-68
2023/11/21 03:03:53;;;;;;;41.78;14.73;;;5.80;99.90;;;;;;5040135;28;20066;-68
2023/11/21 03:06:19;;;;;;;46.65;14.82;;;5.90;99.90;;;;;;5059968;28;20016;-68
2023/11/21 03:08:45;;;;;;;42.50;14.10;;;6.00;99.90;;;;;;5060597;28;20043;-68
2023/11/21 03:11:10;;;;;;;42.60;14.07;;;6.10;99.90;;;;;;5059717;28;20024;-68
2023/11/21 03:13:36;;;;;;;41.45;14.25;;;6.10;99.90;;;;;;5060042;28;20107;-68
2023/11/21 03:16:02;;;;;;;39.78;14.90;;;6.20;99.90;;;;;;5057483;28;20021;-68
2023/11/21 03:18:30;;;;;;;35.08;13.48;;;6.30;99.90;;;;;;5060021;28;20035;-68
2023/11/21 03:20:55;;;;;;;37.28;14.27;;;6.30;99.90;;;;;;5060977;28;20050;-68
2023/11/21 03:23:21;;;;;;;39.88;14.70;;;6.40;99.90;;;;;;5059593;28;20032;-68
2023/11/21 03:25:46;;;;;;;39.15;14.43;;;6.30;99.90;;;;;;5057492;28;20036;-68
2023/11/21 03:28:12;;;;;;;39.95;13.63;;;6.30;99.90;;;;;;5057176;28;20112;-68
2023/11/21 03:30:38;;;;;;;37.22;13.60;;;6.30;99.90;;;;;;5051488;28;20036;-68
2023/11/21 03:33:04;;;;;;;39.88;14.27;;;6.30;99.90;;;;;;5060163;28;20028;-68
2023/11/21 03:35:29;;;;;;;37.88;13.63;;;6.40;99.90;;;;;;5058174;28;20025;-68
2023/11/21 03:37:56;;;;;;;28.98;12.27;;;6.40;99.90;;;;;;5058745;28;20112;-68
2023/11/21 03:40:22;;;;;;;39.33;13.70;;;6.30;99.90;;;;;;5060229;28;20028;-68
2023/11/21 03:42:47;;;;;;;35.13;14.75;;;6.30;99.90;;;;;;5056985;28;20049;-68
2023/11/21 03:45:15;;;;;;;38.67;14.18;;;6.20;99.90;;;;;;5060224;28;20024;-68
2023/11/21 03:47:42;;;;;;;44.85;15.40;;;6.30;99.90;;;;;;5057953;28;20381;-68
2023/11/21 03:50:10;;;;;;;36.80;14.48;;;6.20;99.90;;;;;;5060489;28;20024;-68
2023/11/21 03:52:37;;;;;;;43.05;14.70;;;6.20;99.90;;;;;;5059749;28;20036;-68
2023/11/21 03:55:03;;;;;;;40.38;15.43;;;6.20;99.90;;;;;;5063872;28;20028;-68
2023/11/21 03:57:28;;;;;;;36.55;13.75;;;6.20;99.90;;;;;;5049769;28;20074;-68
2023/11/21 03:59:54;;;;;;;40.90;15.18;;;6.30;99.90;;;;;;5061460;28;20028;-68
2023/11/21 04:02:20;;;;;;;39.58;16.00;;;6.40;99.90;;;;;;5058133;28;20033;-68
2023/11/21 04:04:45;;;;;;;44.58;16.10;;;6.40;99.90;;;;;;5049741;28;20447;-68
2023/11/21 04:07:13;;;;;;;41.63;15.75;;;6.40;99.90;;;;;;5061330;28;20036;-68
2023/11/21 04:09:41;;;;;;;36.40;14.85;;;6.50;99.90;;;;;;5058009;28;20086;-68
2023/11/21 04:12:08;;;;;;;46.45;14.90;;;6.60;99.90;;;;;;5055343;28;20510;-68
2023/11/21 04:14:34;;;;;;;43.13;14.75;;;6.60;99.90;;;;;;5059092;28;20164;-68
2023/11/21 04:16:59;;;;;;;42.30;14.50;;;6.50;99.90;;;;;;5062378;28;20049;-68
2023/11/21 04:19:25;;;;;;;40.22;15.18;;;6.60;99.90;;;;;;5060969;28;20031;-68
2023/11/21 04:21:51;;;;;;;43.97;15.05;;;6.50;99.90;;;;;;5038183;28;20025;-68
2023/11/21 04:24:17;;;;;;;41.35;14.68;;;6.60;99.90;;;;;;5062967;28;20068;-68
2023/11/21 04:26:45;;;;;;;39.45;15.15;;;6.60;99.90;;;;;;5058528;28;20051;-68
2023/11/21 04:29:11;;;;;;;44.72;15.48;;;6.70;99.90;;;;;;5061963;28;20028;-68
2023/11/21 04:31:37;;;;;;;41.28;13.88;;;6.70;99.90;;;;;;5045073;28;20078;-65
2023/11/21 04:34:04;;;;;;;43.38;14.18;;;6.60;99.90;;;;;;5039178;28;20025;-65
2023/11/21 04:36:30;;;;;;;40.95;15.07;;;6.60;99.90;;;;;;5061823;28;20021;-65
2023/11/21 04:38:58;;;;;;;41.17;14.23;;;6.60;99.90;;;;;;5061282;28;20020;-65
2023/11/21 04:41:27;;;;;;;37.83;14.38;;;6.60;99.90;;;;;;5060496;28;20036;-65
2023/11/21 04:43:52;;;;;;;36.35;14.02;;;6.50;99.90;;;;;;5062949;28;20033;-65
2023/11/21 04:46:18;;;;;;;35.83;14.35;;;6.60;99.90;;;;;;5059650;28;20044;-65
2023/11/21 04:48:44;;;;;;;40.90;13.52;;;6.50;99.90;;;;;;5061764;28;20048;-65
2023/11/21 04:51:11;;;;;;;44.90;14.50;;;6.50;99.90;;;;;;5061227;28;20032;-64
2023/11/21 04:53:37;;;;;;;37.55;13.02;;;6.50;99.90;;;;;;5042012;28;20036;-64
2023/11/21 04:56:03;;;;;;;33.92;13.43;;;6.50;99.90;;;;;;5050074;28;20025;-64
2023/11/21 04:58:28;;;;;;;30.40;13.45;;;6.50;99.90;;;;;;5057207;28;20116;-64
2023/11/21 05:00:54;;;;;;;38.03;13.55;;;6.40;99.90;;;;;;5061582;28;20575;-65
2023/11/21 05:03:20;;;;;;;43.63;15.00;;;6.40;99.90;;;;;;5060664;28;20017;-65
2023/11/21 05:05:46;;;;;;;33.83;14.13;;;6.40;99.90;;;;;;5060206;28;20410;-65
2023/11/21 05:08:11;;;;;;;37.40;14.65;;;6.40;99.90;;;;;;5050817;28;20109;-65
2023/11/21 05:10:39;;;;;;;39.72;13.75;;;6.30;99.90;;;;;;5055108;28;20028;-65
2023/11/21 05:13:09;;;;;;;41.28;14.15;;;6.30;99.90;;;;;;5055976;28;20373;-65
2023/11/21 05:15:35;;;;;;;37.00;14.25;;;6.20;99.90;;;;;;5057654;28;20036;-64
2023/11/21 05:18:02;;;;;;;33.22;12.65;;;6.20;99.90;;;;;;5037122;28;20032;-65
2023/11/21 05:20:28;;;;;;;39.28;14.20;;;6.10;99.90;;;;;;5031849;28;20444;-65
2023/11/21 05:22:54;;;;;;;38.85;13.70;;;6.10;99.90;;;;;;5045375;28;20037;-65
2023/11/21 05:25:19;;;;;;;34.60;14.15;;;6.00;99.90;;;;;;5052243;28;20041;-65
2023/11/21 05:27:48;;;;;;;34.10;13.18;;;6.00;99.90;;;;;;5030604;28;20052;-64
2023/11/21 05:30:14;;;;;;;36.75;13.02;;;5.90;99.90;;;;;;5047500;28;20053;-64
2023/11/21 05:32:43;;;;;;;31.33;13.27;;;5.90;99.90;;;;;;5046031;28;20036;-64
2023/11/21 05:35:13;;;;;;;37.50;14.20;;;5.80;99.90;;;;;;5047012;28;20025;-65
2023/11/21 05:37:39;;;;;;;43.50;15.27;;;5.80;99.90;;;;;;5036345;28;20056;-65
2023/11/21 05:40:06;;;;;;;39.08;14.02;;;5.70;99.90;;;;;;5035668;28;20023;-65
2023/11/21 05:42:33;;;;;;;34.70;14.95;;;5.60;99.90;;;;;;5051805;28;20128;-65
2023/11/21 05:44:59;;;;;;;35.38;13.73;;;5.60;99.90;;;;;;5054880;28;20672;-65
2023/11/21 05:47:40;;;;;;;41.08;14.15;;;5.50;99.90;;;;;;5047193;28;20120;-65
2023/11/21 05:50:09;;;;;;;36.45;14.02;;;5.60;99.90;;;;;;5049824;28;20033;-65
2023/11/21 05:52:35;;;;;;;36.53;13.60;;;5.60;99.90;;;;;;5052721;28;20547;-65
2023/11/21 05:55:00;;;;;;;42.10;14.63;;;5.70;99.90;;;;;;5036947;28;20107;-65
2023/11/21 05:57:26;;;;;;;36.92;14.13;;;5.80;99.90;;;;;;5047625;28;20037;-65
2023/11/21 05:59:52;;;;;;;36.25;13.38;;;5.90;99.90;;;;;;5045909;28;20049;-65
2023/11/21 06:02:20;;;;;;;38.30;13.57;;;6.00;99.90;;;;;;5052159;28;20134;-65
2023/11/21 06:04:45;;;;;;;40.67;15.18;;;6.00;99.90;;;;;;5051373;28;20024;-65
2023/11/21 06:07:11;;;;;;;41.78;14.50;;;6.10;99.90;;;;;;5054188;28;20028;-65
2023/11/21 06:09:37;;;;;;;44.08;15.50;;;6.10;99.90;;;;;;5049786;28;20029;-65
2023/11/21 06:12:03;;;;;;;42.58;14.40;;;6.20;99.90;;;;;;5049863;28;20484;-65
2023/11/21 06:14:29;;;;;;;39.42;14.00;;;6.20;99.90;;;;;;5044213;28;20090;-65
2023/11/21 06:16:56;;;;;;;39.25;13.77;;;6.30;99.90;;;;;;5030268;28;20021;-65
2023/11/21 06:19:22;;;;;;;41.30;14.93;;;6.40;99.90;;;;;;5048427;28;20025;-65
2023/11/21 06:21:47;;;;;;;44.40;13.95;;;6.40;99.90;;;;;;5050310;28;20017;-65
2023/11/21 06:24:15;;;;;;;39.22;14.05;;;6.50;99.90;;;;;;5052518;28;20052;-65
2023/11/21 06:26:41;;;;;;;40.67;13.98;;;6.50;99.90;;;;;;5050107;28;20178;-65
2023/11/21 06:29:07;;;;;;;42.72;15.98;;;6.40;99.90;;;;;;5054077;28;20021;-65
2023/11/21 06:31:35;;;;;;;47.30;15.73;;;6.40;99.90;;;;;;5039579;28;20064;-65
2023/11/21 06:34:01;;;;;;;36.22;13.82;;;6.30;99.90;;;;;;5056115;28;20035;-65
2023/11/21 06:36:26;;;;;;;44.50;14.93;;;6.30;99.90;;;;;;5033218;28;20077;-65
2023/11/21 06:38:52;;;;;;;40.88;15.52;;;6.20;99.90;;;;;;5048618;28;20078;-65
2023/11/21 06:41:18;;;;;;;43.83;15.68;;;6.10;99.90;;;;;;5052055;28;20028;-65
2023/11/21 06:43:46;;;;;;;51.03;16.45;;;6.00;99.90;;;;;;5046027;28;20067;-65
2023/11/21 06:46:14;;;;;;;42.80;15.98;;;5.80;99.90;;;;;;5050621;28;20044;-65
2023/11/21 06:48:43;;;;;;;51.28;16.60;;;5.60;99.90;;;;;;5033608;28;20025;-65
2023/11/21 06:51:08;;;;;;;52.53;17.05;;;5.50;99.90;;;;;;5041318;28;20052;-64
2023/11/21 06:53:36;;;;;;;48.83;16.08;;;5.50;99.90;;;;;;5046805;28;20064;-68
2023/11/21 06:56:02;;;;;;;47.45;15.32;;;5.30;99.90;;;;;;5030457;28;20037;-68
2023/11/21 06:58:28;;;;;;;46.72;15.20;;;5.30;99.90;;;;;;5047790;28;20016;-68
2023/11/21 07:00:54;;;;;;;45.47;15.20;;;5.20;99.90;;;;;;5049085;28;20597;-68
2023/11/21 07:03:20;;;;;;;41.88;14.38;;;5.30;99.90;;;;;;5056043;28;20036;-68
2023/11/21 07:05:45;;;;;;;41.92;15.57;;;5.30;99.90;;;;;;5028803;28;20090;-68
2023/11/21 07:08:12;;;;;;;43.35;15.55;;;5.20;99.90;;;;;;5026370;28;20476;-69
2023/11/21 07:10:38;;;;;;;40.20;15.25;;;5.20;99.90;;;;;;5037952;28;20039;-69
2023/11/21 07:13:04;;;;;;;43.78;15.57;;;5.20;99.90;;;;;;5051017;28;20079;-68
2023/11/21 07:15:29;;;;;;;45.42;16.73;;;5.20;99.90;;;;;;5057644;28;20823;-68
2023/11/21 07:17:55;;;;;;;52.70;18.30;;;5.20;99.90;;;;;;5047765;28;20515;-68
2023/11/21 07:20:23;;;;;;;54.63;17.55;;;5.30;99.90;;;;;;5051789;28;20064;-68
2023/11/21 07:22:49;;;;;;;45.22;16.67;;;5.40;99.90;;;;;;5035577;28;20419;-68
2023/11/21 07:25:14;;;;;;;50.08;17.13;;;5.50;99.90;;;;;;5058733;28;20025;-68
2023/11/21 07:27:40;;;;;;;49.45;16.58;;;5.60;99.90;;;;;;5062028;28;20100;-68
2023/11/21 07:30:07;;;;;;;49.15;18.63;;;5.70;99.90;;;;;;5052439;28;20057;-69
2023/11/21 07:32:33;;;;;;;58.58;18.80;;;5.80;99.90;;;;;;5035866;28;20033;-69
2023/11/21 07:35:00;;;;;;;47.10;17.05;;;5.90;99.90;;;;;;5060821;28;20032;-69
2023/11/21 07:37:28;;;;;;;47.47;17.15;;;6.00;99.90;;;;;;5041232;28;20325;-69
2023/11/21 07:39:56;;;;;;;43.88;15.85;;;6.00;99.90;;;;;;5046536;28;20070;-69
2023/11/21 07:42:24;;;;;;;47.13;16.58;;;6.10;99.90;;;;;;5053421;28;20029;-69
2023/11/21 07:44:50;;;;;;;46.08;16.25;;;6.20;99.90;;;;;;5056753;28;20036;-69
2023/11/21 07:47:15;;;;;;;41.70;15.40;;;6.20;99.90;;;;;;5035290;28;20036;-69
2023/11/21 07:49:43;;;;;;;44.22;16.50;;;6.30;99.90;;;;;;5058676;28;20039;-69
2023/11/21 07:52:09;;;;;;;49.70;18.58;;;6.40;99.90;;;;;;5034013;28;20072;-69
2023/11/21 07:54:35;;;;;;;49.70;20.75;;;6.40;99.90;;;;;;5059043;28;20024;-69
2023/11/21 07:57:04;;;;;;;46.50;20.13;;;6.50;99.90;;;;;;5057335;28;20047;-69
2023/11/21 07:59:29;;;;;;;43.03;17.33;;;6.60;99.90;;;;;;5051419;28;20029;-69
2023/11/21 08:01:55;;;;;;;53.35;17.63;;;6.70;99.90;;;;;;5056117;28;20032;-66
2023/11/21 08:04:20;;;;;;;47.20;17.60;;;6.80;99.90;;;;;;5059762;28;20036;-66
2023/11/21 08:06:46;;;;;;;45.97;17.40;;;6.90;99.90;;;;;;5061003;28;20020;-66
2023/11/21 08:09:12;;;;;;;47.70;16.55;;;6.90;99.90;;;;;;5065570;28;20104;-66
2023/11/21 08:11:38;;;;;;;47.42;17.77;;;6.90;99.90;;;;;;5057502;28;20036;-66
2023/11/21 08:14:04;;;;;;;44.05;17.20;;;7.00;99.90;;;;;;5060593;28;20035;-66
2023/11/21 08:16:30;;;;;;;49.97;17.48;;;7.10;99.90;;;;;;5055451;28;20029;-66
2023/11/21 08:18:59;;;;;;;42.70;17.27;;;7.30;99.90;;;;;;5034011;28;20048;-66
2023/11/21 08:21:24;;;;;;;51.38;16.10;;;7.30;99.90;;;;;;5060422;28;20016;-66
2023/11/21 08:23:53;;;;;;;45.95;15.88;;;7.40;99.90;;;;;;5015695;28;20373;-65
2023/11/21 08:26:20;;;;;;;47.28;16.65;;;7.50;99.90;;;;;;5042905;28;20033;-65
2023/11/21 08:28:47;;;;;;;47.70;15.98;;;7.50;99.90;;;;;;5014675;28;20484;-65
2023/11/21 08:31:12;;;;;;;42.15;15.82;;;7.60;99.90;;;;;;5047625;28;20064;-65
2023/11/21 08:33:38;;;;;;;47.50;16.33;;;7.70;99.90;;;;;;5044384;28;20120;-65
2023/11/21 08:36:08;;;;;;;45.92;15.55;;;7.70;99.90;;;;;;5040561;28;20032;-65
2023/11/21 08:38:37;;;;;;;46.58;15.05;;;7.70;99.90;;;;;;5026392;28;20021;-65
2023/11/21 08:41:09;;;;;;;40.00;15.73;;;7.80;99.90;;;;;;5051811;28;20058;-65
2023/11/21 08:43:39;;;;;;;47.22;17.05;;;7.80;99.90;;;;;;5051264;28;20128;-65
2023/11/21 08:46:10;;;;;;;46.27;16.00;;;7.80;99.90;;;;;;5055557;28;20444;-65
2023/11/21 08:48:36;;;;;;;47.95;16.27;;;7.80;99.90;;;;;;5050399;28;20347;-65
2023/11/21 08:51:03;;;;;;;40.83;15.30;;;7.80;99.90;;;;;;5055955;28;20106;-66
2023/11/21 08:53:30;;;;;;;40.13;15.48;;;7.90;99.90;;;;;;5052533;28;20107;-66
2023/11/21 08:55:56;;;;;;;50.72;17.58;;;7.90;99.90;;;;;;5032951;28;20425;-65
2023/11/21 08:58:22;;;;;;;46.20;15.60;;;7.90;99.90;;;;;;5056794;28;20044;-66
2023/11/21 09:00:47;;;;;;;48.10;15.68;;;7.90;99.90;;;;;;5052233;28;20125;-66
2023/11/21 09:03:13;;;;;;;43.10;16.42;;;7.90;99.90;;;;;;5054217;28;20024;-65
2023/11/21 09:05:39;;;;;;;40.13;16.08;;;7.90;99.90;;;;;;5053104;28;20037;-65
2023/11/21 09:08:06;;;;;;;49.53;16.55;;;7.90;99.90;;;;;;5055140;28;20036;-65
2023/11/21 09:10:35;;;;;;;45.33;16.25;;;8.00;99.90;;;;;;5039585;28;20099;-66
2023/11/21 09:13:01;;;;;;;47.35;17.23;;;8.00;99.90;;;;;;5054212;28;20416;-68
2023/11/21 09:15:27;;;;;;;41.30;15.63;;;8.00;99.90;;;;;;5049998;28;20037;-68
2023/11/21 09:17:53;;;;;;;44.72;16.60;;;8.10;99.90;;;;;;5054081;28;20036;-68
2023/11/21 09:20:22;;;;;;;50.65;17.77;;;8.10;99.90;;;;;;5052387;28;20118;-68
2023/11/21 09:22:48;;;;;;;49.47;16.17;;;8.20;99.90;;;;;;5053815;28;20128;-68
2023/11/21 09:25:17;;;;;;;46.88;16.88;;;8.20;99.90;;;;;;5054900;28;20456;-68
2023/11/21 09:27:42;;;;;;;43.95;15.90;;;8.20;99.90;;;;;;5050810;28;20153;-68
2023/11/21 09:30:10;;;;;;;41.75;15.70;;;8.30;99.90;;;;;;5052297;28;20453;-68
2023/11/21 09:32:37;;;;;;;41.72;17.10;;;8.30;99.90;;;;;;5040478;28;20029;-68
2023/11/21 09:35:09;;;;;;;45.97;15.15;;;8.40;99.90;;;;;;5053954;28;20367;-68
2023/11/21 09:37:37;;;;;;;44.15;15.35;;;8.40;99.90;;;;;;5047078;28;20087;-68
2023/11/21 09:40:05;;;;;;;39.97;15.05;;;8.50;99.90;;;;;;5039607;28;20129;-68
2023/11/21 09:42:37;;;;;;;37.85;14.95;;;8.50;99.90;;;;;;5055198;28;20093;-68
2023/11/21 09:45:25;;;;;;;43.28;15.93;;;8.50;99.90;;;;;;5052153;28;20078;-68
2023/11/21 09:47:55;;;;;;;44.80;14.70;;;8.60;99.90;;;;;;5039354;28;20024;-68
2023/11/21 09:50:21;;;;;;;39.95;14.98;;;8.60;99.90;;;;;;5053408;28;20025;-68
2023/11/21 09:53:00;;;;;;;42.17;15.90;;;8.80;99.90;;;;;;5056339;28;20046;-68
2023/11/21 09:55:29;;;;;;;47.05;14.25;;;8.90;99.90;;;;;;5043683;28;20039;-68
2023/11/21 09:57:56;;;;;;;43.85;14.68;;;8.90;99.90;;;;;;5051349;28;20106;-69
2023/11/21 10:00:23;;;;;;;52.60;16.45;;;9.10;99.90;;;;;;5030963;28;20070;-69
2023/11/21 10:02:50;;;;;;;51.58;15.73;;;9.00;99.90;;;;;;5051692;28;20021;-69
2023/11/21 10:05:17;;;;;;;42.08;15.65;;;9.10;99.90;;;;;;5038634;28;20051;-69
2023/11/21 10:07:46;;;;;;;42.67;16.17;;;9.10;99.90;;;;;;5057428;28;20029;-69
2023/11/21 10:10:13;;;;;;;50.83;17.10;;;9.10;99.90;;;;;;5035113;28;20086;-69
2023/11/21 10:12:42;;;;;;;45.58;16.63;;;9.10;99.90;;;;;;5057453;28;20045;-69
2023/11/21 10:15:11;;;;;;;48.42;16.42;;;9.10;99.90;;;;;;5033824;28;20060;-69
2023/11/21 10:17:43;;;;;;;49.08;17.15;;;9.10;99.90;;;;;;5052473;28;20484;-68
2023/11/21 10:20:11;;;;;;;;;;;9.10;99.90;;;;;;5055751;28;20048;-68
2023/11/21 10:22:42;;;;;;;46.83;17.13;;;9.10;99.90;;;;;;5040732;28;20095;-68
2023/11/21 10:25:08;;;;;;;42.05;15.35;;;9.10;99.90;;;;;;5049030;28;20107;-68
2023/11/21 10:27:35;;;;;;;53.25;17.98;;;9.10;99.90;;;;;;5049555;28;20067;-68
2023/11/21 10:30:04;;;;;;;50.75;17.80;;;9.10;99.90;;;;;;5037192;28;20119;-68
2023/11/21 10:32:32;;;;;;;56.85;18.35;;;9.10;99.90;;;;;;5053131;28;20048;-68
2023/11/21 10:35:06;;;;;;;49.65;17.85;;;9.10;99.90;;;;;;5050742;28;20028;-68
2023/11/21 10:37:36;;;;;;;55.97;18.38;;;9.10;99.90;;;;;;5050209;28;20040;-68
2023/11/21 10:40:02;;;;;;;56.75;19.45;;;9.10;99.90;;;;;;5051715;28;20031;-68
2023/11/21 10:42:27;;;;;;;50.50;18.00;;;9.10;99.90;;;;;;5045910;28;20441;-69
2023/11/21 10:44:54;;;;;;;56.90;18.50;;;9.20;99.90;;;;;;5037668;28;20508;-68
2023/11/21 10:47:22;;;;;;;53.95;19.10;;;9.20;99.90;;;;;;5048811;28;20170;-68
2023/11/21 10:49:53;;;;;;;51.95;18.40;;;9.20;99.90;;;;;;5051180;28;20025;-68
2023/11/21 10:52:19;;;;;;;51.75;19.27;;;9.30;99.90;;;;;;5053066;28;20029;-68
2023/11/21 10:54:46;;;;;;;53.08;18.75;;;9.30;99.90;;;;;;5056373;28;20044;-68
2023/11/21 10:57:17;;;;;;;56.17;18.52;;;9.40;99.90;;;;;;5054615;28;20038;-68
2023/11/21 10:59:49;;;;;;;57.22;19.00;;;9.30;99.90;;;;;;5057945;28;20436;-68
2023/11/21 11:02:27;;;;;;;55.00;20.75;;;9.30;99.90;;;;;;5027369;28;20791;-68
2023/11/21 11:04:55;;;;;;;55.70;19.25;;;9.30;99.90;;;;;;5046069;28;20036;-68
2023/11/21 11:07:25;;;;;;;55.85;21.30;;;9.20;99.90;;;;;;5056691;28;20020;-68
2023/11/21 11:09:52;;;;;;;52.53;18.15;;;9.20;99.90;;;;;;5042536;28;20051;-68
2023/11/21 11:12:19;;;;;;;57.50;19.40;;;9.20;99.90;;;;;;5050297;28;20053;-68
2023/11/21 11:14:44;;;;;;;60.60;18.75;;;9.10;99.90;;;;;;5049941;28;20071;-68
2023/11/21 11:17:11;;;;;;;64.95;21.02;;;9.10;99.90;;;;;;5051463;28;20057;-68
2023/11/21 11:19:38;;;;;;;55.42;19.35;;;9.00;99.90;;;;;;5050538;28;20037;-68
2023/11/21 11:22:42;;;;;;;59.95;21.33;;;9.10;99.90;;;;;;5050304;28;20426;-68
2023/11/21 11:25:35;;;;;;;61.25;18.30;;;9.10;99.90;;;;;;5052533;28;20074;-68
2023/11/21 11:28:00;;;;;;;59.88;19.55;;;9.10;99.90;;;;;;5049708;28;20729;-68
2023/11/21 11:31:04;;;;;;;60.88;21.10;;;9.10;99.90;;;;;;5053788;28;20055;-68
2023/11/21 11:33:54;;;;;;;59.70;20.88;;;9.10;99.90;;;;;;5046932;28;20040;-68
2023/11/21 11:36:39;;;;;;;66.07;23.10;;;9.00;99.90;;;;;;5054455;28;20028;-70
2023/11/21 11:39:35;;;;;;;77.53;24.30;;;9.00;99.90;;;;;;5027875;28;20025;-68
2023/11/21 11:42:04;;;;;;;66.68;22.88;;;8.90;99.90;;;;;;5050942;28;20051;-68
2023/11/21 11:44:51;;;;;;;66.50;21.95;;;8.90;99.90;;;;;;5048154;28;20029;-68
2023/11/21 11:47:33;;;;;;;76.60;23.90;;;8.80;99.90;;;;;;5056215;28;20028;-68
2023/11/21 11:50:19;;;;;;;69.65;22.98;;;8.80;99.90;;;;;;5047809;28;20116;-68
2023/11/21 11:52:54;;;;;;;63.63;23.13;;;8.70;99.90;;;;;;5040442;28;20028;-68
2023/11/21 11:55:22;;;;;;;72.63;24.13;;;8.80;99.90;;;;;;5029537;28;20460;-68
2023/11/21 11:57:55;;;;;;;65.53;23.15;;;8.80;99.90;;;;;;5028566;28;20028;-68
2023/11/21 12:00:28;;;;;;;86.03;28.25;;;8.70;99.90;;;;;;5045350;28;20021;-68
2023/11/21 12:02:59;;;;;;;76.72;24.50;;;8.70;99.90;;;;;;5042728;28;20097;-68
2023/11/21 12:05:30;;;;;;;86.97;29.58;;;8.60;99.90;;;;;;5044709;28;20035;-68
2023/11/21 12:07:57;;;;;;;82.18;26.73;;;8.60;99.90;;;;;;5054033;28;20137;-68
2023/11/21 12:10:28;;;;;;;79.88;26.20;;;8.50;99.90;;;;;;5040956;28;20488;-68
2023/11/21 12:13:07;;;;;;;72.20;25.33;;;8.50;99.90;;;;;;5055014;28;20041;-68
2023/11/21 12:15:33;;;;;;;77.32;23.77;;;8.50;99.90;;;;;;5051259;28;20029;-68
2023/11/21 12:18:00;;;;;;;70.05;24.85;;;8.50;99.90;;;;;;5048408;28;20389;-68
2023/11/21 12:20:30;;;;;;;70.85;24.42;;;8.40;99.90;;;;;;5039582;28;20025;-68
2023/11/21 12:23:00;;;;;;;64.47;20.30;;;8.40;99.90;;;;;;5034635;28;20496;-68
2023/11/21 12:25:29;;;;;;;73.13;22.60;;;8.40;99.90;;;;;;5049888;28;20033;-68
2023/11/21 12:27:55;;;;;;;63.10;21.52;;;8.30;99.90;;;;;;5058119;28;20122;-68
2023/11/21 12:30:23;;;;;;;61.67;21.48;;;8.40;99.90;;;;;;5056632;28;20035;-68
2023/11/21 12:32:53;;;;;;;60.58;19.88;;;8.50;99.90;;;;;;5056066;28;20025;-68
2023/11/21 12:35:33;;;;;;;62.67;21.23;;;8.60;99.90;;;;;;5037271;28;20029;-68
2023/11/21 12:37:59;;;;;;;;;;;8.40;99.90;;;;;;5056265;28;20036;-68
2023/11/21 12:40:25;;;;;;;48.90;17.38;;;8.30;99.90;;;;;;5040519;28;19924;-68